Time;durP1;ratioP1;P1;durP2;ratioP2;P2;SDS_P1;SDS_P2;PMS_P1;PMS_P2;Temp;Humidity;BMP_temperature;BMP_pressure;BME280_temperature;BME280_humidity;BME280_pressure;Samples;Min_cycle;Max_cycle;Signal;HPM_P1;HPM_P2
2022/06/30 00:00:00;;;;;;;;;;;23.10;99.90;;;;;;5029805;28;19920;-77
2022/06/30 00:02:26;;;;;;;;;;;23.10;99.90;;;;;;5023489;28;19941;-77
2022/06/30 00:04:51;;;;;;;;;;;23.10;99.90;;;;;;5034610;28;20039;-77
2022/06/30 00:07:17;;;;;;;;;;;23.20;99.90;;;;;;5036086;28;19913;-77
2022/06/30 00:09:42;;;;;;;;;;;23.20;99.90;;;;;;5034466;28;19916;-77
2022/06/30 00:12:08;;;;;;;;;;;23.20;99.90;;;;;;5034455;28;19913;-77
2022/06/30 00:14:34;;;;;;;;;;;23.20;99.90;;;;;;5034646;28;19959;-77
2022/06/30 00:16:59;;;;;;;;;;;23.20;99.90;;;;;;5034210;28;19964;-78
2022/06/30 00:19:25;;;;;;;;;;;23.20;99.90;;;;;;5034612;28;19913;-78
2022/06/30 00:21:50;;;;;;;;;;;23.30;99.90;;;;;;5035163;28;19914;-77
2022/06/30 00:24:16;;;;;;;;;;;23.30;99.90;;;;;;5034261;28;19955;-77
2022/06/30 00:26:42;;;;;;;;;;;23.30;99.90;;;;;;5031720;28;19967;-78
2022/06/30 00:29:07;;;;;;;;;;;23.30;99.90;;;;;;5020842;28;20397;-78
2022/06/30 00:31:33;;;;;;;;;;;23.30;99.90;;;;;;5033838;28;19966;-78
2022/06/30 00:33:58;;;;;;;;;;;23.30;99.90;;;;;;5034456;28;19928;-78
2022/06/30 00:36:24;;;;;;;;;;;23.30;99.90;;;;;;5034340;28;20411;-78
2022/06/30 00:38:49;;;;;;;;;;;23.20;99.90;;;;;;5034066;28;19913;-78
2022/06/30 00:41:15;;;;;;;;;;;23.30;99.90;;;;;;5034066;28;19917;-77
2022/06/30 00:43:41;;;;;;;;;;;23.40;99.90;;;;;;5033872;28;20314;-78
2022/06/30 00:46:07;;;;;;;;;;;23.40;99.90;;;;;;5034222;28;19913;-78
2022/06/30 00:48:33;;;;;;;;;;;23.50;99.90;;;;;;5033774;28;19917;-78
2022/06/30 00:50:59;;;;;;;;;;;23.50;99.90;;;;;;5034199;28;19920;-77
2022/06/30 00:53:25;;;;;;;;;;;23.50;99.90;;;;;;5031876;28;19913;-78
2022/06/30 00:55:51;;;;;;;;;;;23.50;99.90;;;;;;5018525;28;19971;-77
2022/06/30 00:58:19;;;;;;;;;;;23.50;99.90;;;;;;5030041;28;19913;-77
2022/06/30 01:00:45;;;;;;;;;;;23.40;99.90;;;;;;5033366;28;19913;-78
2022/06/30 01:03:11;;;;;;;;;;;23.40;99.90;;;;;;5033420;28;20008;-78
2022/06/30 01:05:37;;;;;;;;;;;23.40;99.90;;;;;;5031940;28;20008;-77
2022/06/30 01:08:03;;;;;;;;;;;23.40;99.90;;;;;;5019667;28;20374;-78
2022/06/30 01:13:13;;;;;;;;;;;23.40;99.90;;;;;;5018664;28;19916;-78
2022/06/30 01:15:39;;;;;;;;;;;23.40;99.90;;;;;;5032040;28;19921;-78
2022/06/30 01:18:05;;;;;;;;;;;23.50;99.90;;;;;;5033279;28;19913;-78
2022/06/30 01:20:31;;;;;;;;;;;23.50;99.90;;;;;;5033394;28;19943;-78
2022/06/30 01:22:57;;;;;;;;;;;23.50;99.90;;;;;;5033470;28;19940;-78
2022/06/30 01:25:26;;;;;;;;;;;23.50;99.90;;;;;;5033532;28;20004;-78
2022/06/30 01:27:53;;;;;;;;;;;23.50;99.90;;;;;;5032543;28;19963;-78
2022/06/30 01:30:18;;;;;;;;;;;23.50;99.90;;;;;;5032785;28;19917;-77
2022/06/30 01:32:44;;;;;;;;;;;23.50;99.90;;;;;;5032967;28;19914;-78
2022/06/30 01:35:09;;;;;;;;;;;23.50;99.90;;;;;;5033040;28;20425;-77
2022/06/30 01:37:45;;;;;;;;;;;23.50;99.90;;;;;;5032979;28;19909;-77
2022/06/30 01:40:11;;;;;;;;;;;23.50;99.90;;;;;;5033424;28;20377;-77
2022/06/30 01:42:37;;;;;;;;;;;23.60;99.90;;;;;;5032745;28;20035;-78
2022/06/30 01:45:03;;;;;;;;;;;23.60;99.90;;;;;;5026966;28;19921;-77
2022/06/30 01:47:28;;;;;;;;;;;23.60;99.90;;;;;;5022600;28;19913;-78
2022/06/30 01:49:54;;;;;;;;;;;23.60;99.90;;;;;;5031378;28;20314;-78
2022/06/30 01:52:20;;;;;;;;;;;23.70;99.90;;;;;;5033353;28;19909;-78
2022/06/30 01:54:45;;;;;;;;;;;23.60;99.90;;;;;;5017565;28;19965;-78
2022/06/30 01:57:11;;;;;;;;;;;23.40;99.90;;;;;;5021509;28;19917;-78
2022/06/30 01:59:36;;;;;;;;;;;23.30;99.90;;;;;;5022760;28;19917;-78
2022/06/30 02:02:02;;;;;;;;;;;23.30;99.90;;;;;;5032940;28;19909;-77
2022/06/30 02:07:11;;;;;;;;;;;23.40;99.90;;;;;;5018047;28;19964;-78
2022/06/30 02:09:37;;;;;;;;;;;23.40;99.90;;;;;;5030695;28;20321;-78
2022/06/30 02:14:46;;;;;;;;;;;23.50;99.90;;;;;;5032108;28;19975;-78
2022/06/30 02:17:12;;;;;;;;;;;23.50;99.90;;;;;;5032610;28;19920;-78
2022/06/30 02:19:38;;;;;;;;;;;23.50;99.90;;;;;;5032129;28;19916;-78
2022/06/30 02:22:03;;;;;;;;;;;23.50;99.90;;;;;;5032746;28;19909;-77
2022/06/30 02:24:29;;;;;;;;;;;23.50;99.90;;;;;;5023117;28;19936;-77
2022/06/30 02:26:54;;;;;;;;;;;23.50;99.90;;;;;;5025088;28;19995;-77
2022/06/30 02:29:20;;;;;;;;;;;23.50;99.90;;;;;;5031969;28;19920;-78
2022/06/30 02:31:46;;;;;;;;;;;23.50;99.90;;;;;;5032004;28;20418;-78
2022/06/30 02:34:11;;;;;;;;;;;23.40;99.90;;;;;;5032797;28;19917;-78
2022/06/30 02:36:37;;;;;;;;;;;23.40;99.90;;;;;;5030856;28;19917;-78
2022/06/30 02:39:02;;;;;;;;;;;23.50;99.90;;;;;;5031816;28;19917;-77
2022/06/30 02:41:28;;;;;;;;;;;23.40;99.90;;;;;;5031313;28;20012;-77
2022/06/30 02:43:53;;;;;;;;;;;23.40;99.90;;;;;;5031676;28;19913;-78
2022/06/30 02:46:19;;;;;;;;;;;23.40;99.90;;;;;;5032504;28;19913;-76
2022/06/30 02:48:44;;;;;;;;;;;23.40;99.90;;;;;;5032027;28;19928;-77
2022/06/30 02:51:10;;;;;;;;;;;23.40;99.90;;;;;;5031506;28;20386;-77
2022/06/30 02:53:36;;;;;;;;;;;23.10;99.90;;;;;;5031468;28;20298;-78
2022/06/30 02:56:01;;;;;;;;;;;23.00;99.90;;;;;;5031327;28;19924;-78
2022/06/30 02:58:27;;;;;;;;;;;23.00;99.90;;;;;;5031938;28;20400;-78
2022/06/30 03:00:52;;;;;;;;;;;23.00;99.90;;;;;;5030931;28;19920;-78
2022/06/30 03:03:18;;;;;;;;;;;23.00;99.90;;;;;;5024530;28;19909;-78
2022/06/30 03:05:44;;;;;;;;;;;23.10;99.90;;;;;;5023005;28;19952;-78
2022/06/30 03:08:09;;;;;;;;;;;23.10;99.90;;;;;;5031568;28;19916;-78
2022/06/30 03:10:35;;;;;;;;;;;23.10;99.90;;;;;;5031374;28;20305;-78
2022/06/30 03:13:00;;;;;;;;;;;23.10;99.90;;;;;;5031745;28;20027;-78
2022/06/30 03:15:26;;;;;;;;;;;23.10;99.90;;;;;;5031894;28;19917;-78
2022/06/30 03:17:52;;;;;;;;;;;23.10;99.90;;;;;;5031496;28;19917;-78
2022/06/30 03:20:18;;;;;;;;;;;23.00;99.90;;;;;;5031319;28;19913;-78
2022/06/30 03:22:43;;;;;;;;;;;22.90;99.90;;;;;;5034513;28;19921;-78
2022/06/30 03:25:09;;;;;;;;;;;22.90;99.90;;;;;;5035773;28;19920;-77
2022/06/30 03:27:34;;;;;;;;;;;22.90;99.90;;;;;;5035479;28;19909;-78
2022/06/30 03:30:00;;;;;;;;;;;22.90;99.90;;;;;;5035146;28;19960;-78
2022/06/30 03:32:25;;;;;;;;;;;23.00;99.90;;;;;;5035340;28;19916;-78
2022/06/30 03:34:51;;;;;;;;;;;22.90;99.90;;;;;;5035469;28;19952;-78
2022/06/30 03:37:16;;;;;;;;;;;22.90;99.90;;;;;;5035857;28;20001;-78
2022/06/30 03:39:42;;;;;;;;;;;22.90;99.90;;;;;;5022943;28;19920;-78
2022/06/30 03:42:08;;;;;;;;;;;22.90;99.90;;;;;;5023606;28;19929;-77
2022/06/30 03:44:33;;;;;;;;;;;22.90;99.90;;;;;;5025045;28;20300;-78
2022/06/30 03:47:00;;;;;;;;;;;22.90;99.90;;;;;;5034885;28;19920;-78
2022/06/30 03:49:27;;;;;;;;;;;22.80;99.90;;;;;;5035954;28;20285;-78
2022/06/30 03:51:52;;;;;;;;;;;22.80;99.90;;;;;;5035174;28;20344;-78
2022/06/30 03:54:19;;;;;;;;;;;22.70;99.90;;;;;;5034549;28;19917;-78
2022/06/30 03:56:45;;;;;;;;;;;22.70;99.90;;;;;;5034580;28;19968;-78
2022/06/30 03:59:10;;;;;;;;;;;22.70;99.90;;;;;;5034893;28;19917;-78
2022/06/30 04:01:36;;;;;;;;;;;22.70;99.90;;;;;;5034773;28;20400;-78
2022/06/30 04:04:01;;;;;;;;;;;22.70;99.90;;;;;;5035912;28;19916;-78
2022/06/30 04:06:27;;;;;;;;;;;22.70;99.90;;;;;;5034582;28;19924;-78
2022/06/30 04:08:52;;;;;;;;;;;22.70;99.90;;;;;;5028862;28;19917;-78
2022/06/30 04:11:18;;;;;;;;;;;22.60;99.90;;;;;;5022681;28;20015;-78
2022/06/30 04:13:43;;;;;;;;;;;22.50;99.90;;;;;;5034615;28;19932;-78
2022/06/30 04:16:09;;;;;;;;;;;22.60;99.90;;;;;;5035153;28;19932;-78
2022/06/30 04:18:35;;;;;;;;;;;22.50;99.90;;;;;;5034720;28;19966;-78
2022/06/30 04:21:00;;;;;;;;;;;22.50;99.90;;;;;;5029369;28;19949;-78
2022/06/30 04:23:26;;;;;;;;;;;22.50;99.90;;;;;;5023124;28;19945;-79
2022/06/30 04:25:51;;;;;;;;;;;22.50;99.90;;;;;;5034548;28;20467;-78
2022/06/30 04:28:17;;;;;;;;;;;22.40;99.90;;;;;;5030977;28;19936;-78
2022/06/30 04:33:27;;;;;;;;;;;22.20;99.90;;;;;;5033316;28;19920;-78
2022/06/30 04:35:52;;;;;;;;;;;22.30;99.90;;;;;;5034209;28;19917;-78
2022/06/30 04:38:18;;;;;;;;;;;22.20;99.90;;;;;;5033876;28;19919;-78
2022/06/30 04:43:28;;;;;;;;;;;22.20;99.90;;;;;;5031921;28;19924;-78
2022/06/30 04:45:53;;;;;;;;;;;22.10;99.90;;;;;;5033800;28;19935;-78
2022/06/30 04:48:19;;;;;;;;;;;22.10;99.90;;;;;;5033799;28;19920;-78
2022/06/30 04:50:45;;;;;;;;;;;22.10;99.90;;;;;;5033938;28;19996;-79
2022/06/30 04:53:11;;;;;;;;;;;22.10;99.90;;;;;;5033546;28;20000;-78
2022/06/30 04:55:36;;;;;;;;;;;22.20;99.90;;;;;;5033920;28;19921;-79
2022/06/30 04:58:02;;;;;;;;;;;22.30;99.90;;;;;;5034489;28;19955;-78
2022/06/30 05:00:28;;;;;;;;;;;22.30;99.90;;;;;;5024953;28;19968;-78
2022/06/30 05:02:53;;;;;;;;;;;22.50;99.90;;;;;;5026449;28;20000;-79
2022/06/30 05:05:19;;;;;;;;;;;22.60;99.90;;;;;;5032736;28;19913;-78
2022/06/30 05:07:45;;;;;;;;;;;22.60;99.90;;;;;;5017121;28;19999;-78
2022/06/30 05:10:10;;;;;;;;;;;22.70;99.90;;;;;;5032866;28;19949;-78
2022/06/30 05:12:36;;;;;;;;;;;22.70;99.90;;;;;;5032190;28;19920;-79
2022/06/30 05:15:02;;;;;;;;;;;22.60;99.90;;;;;;5033203;28;19944;-78
2022/06/30 05:17:27;;;;;;;;;;;22.60;99.90;;;;;;5033415;28;19917;-78
2022/06/30 05:19:53;;;;;;;;;;;22.70;99.90;;;;;;5033358;28;19992;-78
2022/06/30 05:22:18;;;;;;;;;;;22.70;99.90;;;;;;5033838;28;19920;-78
2022/06/30 05:27:28;;;;;;;;;;;22.90;99.90;;;;;;5033063;28;20290;-78
2022/06/30 05:29:54;;;;;;;;;;;22.90;99.90;;;;;;5033272;28;19913;-78
2022/06/30 05:32:20;;;;;;;;;;;22.90;99.90;;;;;;5032959;28;19913;-79
2022/06/30 05:34:45;;;;;;;;;;;22.90;99.90;;;;;;5033053;28;19928;-78
2022/06/30 05:37:11;;;;;;;;;;;23.00;99.90;;;;;;5033588;28;19909;-78
2022/06/30 05:39:37;;;;;;;;;;;22.90;99.90;;;;;;5023125;28;20409;-78
2022/06/30 05:42:03;;;;;;;;;;;22.90;99.90;;;;;;5026793;28;20111;-79
2022/06/30 05:44:28;;;;;;;;;;;22.90;99.90;;;;;;5032090;28;19913;-78
2022/06/30 05:46:54;;;;;;;;;;;22.90;99.90;;;;;;5033079;28;19919;-78
2022/06/30 05:49:23;;;;;;;;;;;22.90;99.90;;;;;;5033458;28;19909;-79
2022/06/30 05:51:49;;;;;;;;;;;22.80;99.90;;;;;;5032440;28;19919;-78
2022/06/30 05:54:14;;;;;;;;;;;22.90;99.90;;;;;;5032563;28;20008;-78
2022/06/30 05:56:40;;;;;;;;;;;22.90;99.90;;;;;;5032879;28;19913;-79
2022/06/30 05:59:06;;;;;;;;;;;22.90;99.90;;;;;;5032660;28;19959;-78
2022/06/30 06:01:31;;;;;;;;;;;23.00;99.90;;;;;;5032655;28;20472;-78
2022/06/30 06:03:57;;;;;;;;;;;23.10;99.90;;;;;;5032959;28;20408;-78
2022/06/30 06:06:22;;;;;;;;;;;23.00;99.90;;;;;;5032075;28;20344;-79
2022/06/30 06:08:48;;;;;;;;;;;23.00;99.90;;;;;;5032413;28;19913;-78
2022/06/30 06:11:14;;;;;;;;;;;23.10;99.90;;;;;;5032272;28;19913;-78
2022/06/30 06:13:39;;;;;;;;;;;23.10;99.90;;;;;;5032285;28;19909;-79
2022/06/30 06:16:05;;;;;;;;;;;23.00;99.90;;;;;;5032847;28;20437;-78
2022/06/30 06:18:30;;;;;;;;;;;23.10;99.90;;;;;;5023085;28;19922;-78
2022/06/30 06:20:56;;;;;;;;;;;23.30;99.90;;;;;;5024807;28;19913;-79
2022/06/30 06:23:21;;;;;;;;;;;23.40;99.90;;;;;;5032512;28;19913;-78
2022/06/30 06:25:47;;;;;;;;;;;23.50;99.90;;;;;;5031937;28;19913;-78
2022/06/30 06:30:57;;;;;;;;;;;23.60;99.90;;;;;;5032158;28;19920;-78
2022/06/30 06:33:22;;;;;;;;;;;23.50;99.90;;;;;;5031492;28;19913;-77
2022/06/30 06:35:48;;;;;;;;;;;23.50;99.90;;;;;;5031665;28;19921;-78
2022/06/30 06:38:13;;;;;;;;;;;23.50;99.90;;;;;;5032356;28;19913;-79
2022/06/30 06:40:39;;;;;;;;;;;23.50;99.90;;;;;;5031871;28;19909;-78
2022/06/30 06:43:04;;;;;;;;;;;23.50;99.90;;;;;;5032398;28;20526;-79
2022/06/30 06:45:30;;;;;;;;;;;23.50;99.90;;;;;;5031592;28;19921;-78
2022/06/30 06:47:55;;;;;;;;;;;23.50;99.90;;;;;;5031452;28;19921;-78
2022/06/30 06:50:21;;;;;;;;;;;23.60;99.90;;;;;;5032308;28;19913;-79
2022/06/30 06:52:46;;;;;;;;;;;23.60;99.90;;;;;;5031427;28;19917;-79
2022/06/30 06:55:12;;;;;;;;;;;23.60;99.90;;;;;;5031602;28;19932;-79
2022/06/30 06:57:38;;;;;;;;;;;23.50;99.90;;;;;;5022032;28;19933;-78
2022/06/30 07:00:05;;;;;;;;;;;23.60;99.90;;;;;;5025742;28;19944;-79
2022/06/30 07:02:30;;;;;;;;;;;23.60;99.90;;;;;;5031192;28;19913;-79
2022/06/30 07:04:56;;;;;;;;;;;23.70;99.90;;;;;;5031941;28;19913;-79
2022/06/30 07:07:22;;;;;;;;;;;23.70;99.90;;;;;;5032279;28;20438;-79
2022/06/30 07:09:47;;;;;;;;;;;23.80;99.90;;;;;;5031626;28;19928;-79
2022/06/30 07:12:13;;;;;;;;;;;23.80;99.90;;;;;;5031828;28;19992;-79
2022/06/30 07:14:38;;;;;;;;;;;23.80;99.90;;;;;;5030149;28;20374;-79
2022/06/30 07:17:04;;;;;;;;;;;23.90;99.90;;;;;;5031241;28;20366;-79
2022/06/30 07:19:30;;;;;;;;;;;23.90;99.90;;;;;;5031309;28;19948;-79
2022/06/30 07:21:55;;;;;;;;;;;23.90;99.90;;;;;;5031930;28;20373;-79
2022/06/30 07:24:21;;;;;;;;;;;24.00;99.90;;;;;;5031528;28;19967;-79
2022/06/30 07:26:46;;;;;;;;;;;24.20;99.90;;;;;;5031421;28;19920;-79
2022/06/30 07:29:13;;;;;;;;;;;24.30;99.90;;;;;;5031623;28;19913;-79
2022/06/30 07:31:38;;;;;;;;;;;24.30;99.90;;;;;;5030987;28;19909;-79
2022/06/30 07:34:04;;;;;;;;;;;24.30;99.90;;;;;;5031802;28;19917;-79
2022/06/30 07:36:29;;;;;;;;;;;24.30;99.90;;;;;;5022533;28;20424;-79
2022/06/30 07:38:55;;;;;;;;;;;24.30;99.90;;;;;;5023952;28;20401;-79
2022/06/30 07:41:20;;;;;;;;;;;24.30;99.90;;;;;;5031405;28;20031;-79
2022/06/30 07:43:47;;;;;;;;;;;24.30;99.90;;;;;;5031234;28;19921;-80
2022/06/30 07:46:14;;;;;;;;;;;24.30;99.90;;;;;;5031412;28;19909;-79
2022/06/30 07:48:40;;;;;;;;;;;24.30;99.90;;;;;;5031059;28;20374;-79
2022/06/30 07:51:06;;;;;;;;;;;24.40;99.90;;;;;;5031114;28;19928;-80
2022/06/30 07:53:31;;;;;;;;;;;24.50;99.90;;;;;;5031282;28;19921;-79
2022/06/30 07:55:57;;;;;;;;;;;24.50;99.90;;;;;;5031196;28;19931;-79
2022/06/30 07:58:22;;;;;;;;;;;24.60;99.90;;;;;;5031608;28;19913;-79
2022/06/30 08:00:48;;;;;;;;;;;24.60;99.90;;;;;;5030638;28;19955;-79
2022/06/30 08:03:14;;;;;;;;;;;24.60;99.90;;;;;;5030794;28;19940;-79
2022/06/30 08:05:40;;;;;;;;;;;24.50;99.90;;;;;;5029592;28;19913;-79
2022/06/30 08:08:06;;;;;;;;;;;24.50;99.90;;;;;;5033342;28;19927;-79
2022/06/30 08:10:31;;;;;;;;;;;24.60;99.90;;;;;;5034690;28;20016;-79
2022/06/30 08:12:57;;;;;;;;;;;24.50;99.90;;;;;;5035328;28;19920;-79
2022/06/30 08:15:23;;;;;;;;;;;24.60;99.90;;;;;;5026441;28;19921;-79
2022/06/30 08:17:48;;;;;;;;;;;24.70;99.90;;;;;;5026405;28;19913;-79
2022/06/30 08:20:14;;;;;;;;;;;24.70;99.90;;;;;;5034272;28;20294;-79
2022/06/30 08:22:39;;;;;;;;;;;24.70;99.90;;;;;;5033188;28;19913;-79
2022/06/30 08:25:05;;;;;;;;;;;24.80;99.90;;;;;;5035287;28;19929;-80
2022/06/30 08:27:31;;;;;;;;;;;24.90;99.90;;;;;;5034234;28;19920;-79
2022/06/30 08:29:56;;;;;;;;;;;24.90;99.90;;;;;;5033885;28;20040;-79
2022/06/30 08:32:22;;;;;;;;;;;24.80;99.90;;;;;;5034211;28;20389;-79
2022/06/30 08:34:48;;;;;;;;;;;24.80;99.90;;;;;;5034100;28;19925;-80
2022/06/30 08:37:14;;;;;;;;;;;24.80;99.90;;;;;;5034815;28;19916;-79
2022/06/30 08:42:23;;;;;;;;;;;24.90;99.90;;;;;;5033806;28;20415;-79
2022/06/30 08:45:13;;;;;;;;;;;25.00;99.90;;;;;;5033715;28;19944;-79
2022/06/30 08:47:36;;;;;;;;;;;25.00;99.90;;;;;;5033411;28;19913;-80
2022/06/30 08:50:01;;;;;;;;;;;25.10;99.90;;;;;;5034582;28;20031;-79
2022/06/30 08:52:28;;;;;;;;;;;25.10;99.90;;;;;;5034076;28;19992;-79
2022/06/30 08:54:54;;;;;;;;;;;25.20;99.90;;;;;;5022173;28;19917;-79
2022/06/30 08:57:20;;;;;;;;;;;25.40;99.90;;;;;;5030003;28;19913;-78
2022/06/30 08:59:46;;;;;;;;;;;25.40;99.90;;;;;;5033395;28;19921;-79
2022/06/30 09:02:12;;;;;;;;;;;25.40;99.90;;;;;;5034238;28;20305;-78
2022/06/30 09:04:38;;;;;;;;;;;25.50;99.90;;;;;;5033969;28;20360;-78
2022/06/30 09:07:03;;;;;;;;;;;25.50;99.90;;;;;;5032986;28;20064;-78
2022/06/30 09:09:29;;;;;;;;;;;25.50;99.90;;;;;;5034165;28;19913;-78
2022/06/30 09:11:55;;;;;;;;;;;25.40;99.90;;;;;;5033565;28;20298;-79
2022/06/30 09:14:30;;;;;;;;;;;25.40;99.90;;;;;;5033100;28;19921;-79
2022/06/30 09:16:55;;;;;;;;;;;25.40;99.90;;;;;;5018312;28;19920;-79
2022/06/30 09:19:21;;;;;;;;;;;25.40;99.90;;;;;;5034040;28;19909;-78
2022/06/30 09:22:01;;;;;;;;;;;25.50;99.90;;;;;;5033087;28;19960;-79
2022/06/30 09:24:27;;;;;;;;;;;25.50;99.90;;;;;;5033200;28;20304;-78
2022/06/30 09:27:07;;;;;;;;;;;25.50;99.90;;;;;;5033257;28;20263;-79
2022/06/30 09:29:33;;;;;;;;;;;25.50;99.90;;;;;;5030674;28;20299;-79
2022/06/30 09:31:59;;;;;;;;;;;25.30;99.90;;;;;;5018559;28;19913;-78
2022/06/30 09:34:25;;;;;;;;;;;25.30;99.90;;;;;;5017329;28;19917;-78
2022/06/30 09:36:51;;;;;;;;;;;25.30;99.90;;;;;;5033369;28;19920;-79
2022/06/30 09:39:17;;;;;;;;;;;25.30;99.90;;;;;;5033115;28;19909;-78
2022/06/30 09:41:44;;;;;;;;;;;25.40;99.90;;;;;;5033180;28;19925;-78
2022/06/30 09:44:15;;;;;;;;;;;25.40;99.90;;;;;;5032543;28;20267;-78
2022/06/30 09:46:53;;;;;;;;;;;25.50;99.90;;;;;;5032836;28;19909;-78
2022/06/30 09:49:27;;;;;;;;;;;25.60;99.90;;;;;;5029216;28;19910;-78
2022/06/30 09:51:53;;;;;;;;;;;25.60;99.90;;;;;;5021247;28;19913;-79
2022/06/30 09:54:18;;;;;;;;;;;25.60;99.90;;;;;;5028684;28;19921;-79
2022/06/30 09:56:59;;;;;;;;;;;25.60;99.90;;;;;;5032627;28;19952;-78
2022/06/30 09:59:24;;;;;;;;;;;25.50;99.90;;;;;;5032678;28;19913;-78
2022/06/30 10:01:54;;;;;;;;;;;25.40;99.90;;;;;;5032638;28;19974;-78
2022/06/30 10:04:19;;;;;;;;;;;25.40;99.90;;;;;;5028824;28;19940;-78
2022/06/30 10:06:46;;;;;;;;;;;25.50;99.90;;;;;;5032765;28;19913;-78
2022/06/30 10:09:15;;;;;;;;;;;25.60;99.90;;;;;;5032507;28;20286;-78
2022/06/30 10:11:41;;;;;;;;;;;25.80;99.90;;;;;;5029852;28;19913;-78
2022/06/30 10:14:07;;;;;;;;;;;25.90;99.90;;;;;;5018449;28;19923;-78
2022/06/30 10:16:34;;;;;;;;;;;25.90;99.90;;;;;;5033104;28;19924;-78
2022/06/30 10:19:01;;;;;;;;;;;26.00;99.90;;;;;;5031907;28;20360;-78
2022/06/30 10:21:27;;;;;;;;;;;26.10;99.90;;;;;;5032177;28;20004;-78
2022/06/30 10:23:53;;;;;;;;;;;26.20;99.90;;;;;;5032103;28;20497;-77
2022/06/30 10:29:04;;;;;;;;;;;26.10;99.90;;;;;;5018133;28;19939;-77
2022/06/30 10:31:33;;;;;;;;;;;26.20;99.90;;;;;;5031648;28;19963;-77
2022/06/30 10:34:05;;;;;;;;;;;26.20;99.90;;;;;;5032177;28;19912;-77
2022/06/30 10:36:39;;;;;;;;;;;26.20;99.90;;;;;;5031864;28;19923;-77
2022/06/30 10:39:17;;;;;;;;;;;26.20;99.90;;;;;;5031898;28;19967;-77
2022/06/30 10:41:43;;;;;;;;;;;26.10;99.90;;;;;;5031236;28;19921;-77
2022/06/30 10:44:12;;;;;;;;;;;26.20;99.90;;;;;;5032009;28;19917;-77
2022/06/30 10:46:47;;;;;;;;;;;26.10;99.90;;;;;;5032092;28;19913;-77
2022/06/30 10:49:12;;;;;;;;;;;26.10;99.90;;;;;;5015908;28;19913;-77
2022/06/30 10:51:39;;;;;;;;;;;26.10;99.90;;;;;;5020575;28;19993;-77
2022/06/30 10:54:04;;;;;;;;;;;26.20;99.90;;;;;;5020834;28;20302;-77
2022/06/30 10:56:48;;;;;;;;;;;26.30;99.90;;;;;;5031662;28;19909;-78
2022/06/30 10:59:14;;;;;;;;;;;26.20;99.90;;;;;;5032201;28;19914;-78
2022/06/30 11:01:59;;;;;;;;;;;26.20;99.90;;;;;;5031697;28;20303;-77
2022/06/30 11:04:25;;;;;;;;;;;26.20;99.90;;;;;;5028421;28;19913;-77
2022/06/30 11:06:58;;;;;;;;;;;26.20;99.90;;;;;;5030633;28;19919;-77
2022/06/30 11:09:47;;;;;;;;;;;26.20;99.90;;;;;;5031496;28;19978;-77
2022/06/30 11:12:14;;;;;;;;;;;26.30;99.90;;;;;;5025603;28;19913;-77
2022/06/30 11:14:55;;;;;;;;;;;26.40;99.90;;;;;;5031538;28;19918;-77
2022/06/30 11:17:22;;;;;;;;;;;26.30;99.90;;;;;;5031370;28;19967;-77
2022/06/30 11:19:47;;;;;;;;;;;26.30;99.90;;;;;;5031776;28;19924;-77
2022/06/30 11:22:16;;;;;;;;;;;26.40;99.90;;;;;;5031945;28;19913;-77
2022/06/30 11:24:43;;;;;;;;;;;26.40;99.90;;;;;;5020274;28;19914;-77
2022/06/30 11:27:17;;;;;;;;;;;26.50;99.90;;;;;;5026169;28;19967;-77
2022/06/30 11:29:46;;;;;;;;;;;26.60;99.90;;;;;;5029135;28;19924;-77
2022/06/30 11:32:11;;;;;;;;;;;26.60;99.90;;;;;;5018168;28;19920;-77
2022/06/30 11:34:40;;;;;;;;;;;26.60;99.90;;;;;;5031835;28;19917;-77
2022/06/30 11:37:08;;;;;;;;;;;26.60;99.90;;;;;;5016221;28;19914;-77
2022/06/30 11:39:34;;;;;;;;;;;26.60;99.90;;;;;;5029155;28;19931;-77
2022/06/30 11:42:06;;;;;;;;;;;26.70;99.90;;;;;;5031429;28;20008;-77
2022/06/30 11:44:32;;;;;;;;;;;26.80;99.90;;;;;;5035099;28;19913;-77
2022/06/30 11:46:59;;;;;;;;;;;26.80;99.90;;;;;;5035250;28;19920;-77
2022/06/30 11:49:27;;;;;;;;;;;26.80;99.90;;;;;;5035950;28;19913;-78
2022/06/30 11:51:54;;;;;;;;;;;26.90;99.90;;;;;;5023355;28;19913;-77
2022/06/30 11:54:25;;;;;;;;;;;26.80;99.90;;;;;;5030519;28;19917;-77
2022/06/30 11:56:51;;;;;;;;;;;26.90;99.90;;;;;;5034711;28;19939;-77
2022/06/30 11:59:17;;;;;;;;;;;26.90;99.90;;;;;;5035066;28;20397;-77
2022/06/30 12:01:58;;;;;;;;;;;26.80;99.90;;;;;;5034868;28;19923;-77
2022/06/30 12:04:23;;;;;;;;;;;26.80;99.90;;;;;;5031928;28;19917;-77
2022/06/30 12:06:49;;;;;;;;;;;27.10;99.90;;;;;;5034682;28;20373;-77
2022/06/30 12:09:14;;;;;;;;;;;27.10;99.90;;;;;;5027941;28;20004;-77
2022/06/30 12:11:40;;;;;;;;;;;27.00;99.90;;;;;;5025054;28;19909;-77
2022/06/30 12:14:05;;;;;;;;;;;26.90;99.90;;;;;;5034579;28;19917;-77
2022/06/30 12:16:31;;;;;;;;;;;26.80;99.90;;;;;;5033836;28;19917;-77
2022/06/30 12:18:57;;;;;;;;;;;27.00;99.90;;;;;;5034268;28;19913;-77
2022/06/30 12:21:25;;;;;;;;;;;26.90;99.90;;;;;;5034273;28;19909;-78
2022/06/30 12:23:51;;;;;;;;;;;26.90;99.90;;;;;;5034056;28;19913;-77
2022/06/30 12:26:17;;;;;;;;;;;27.00;99.90;;;;;;5035045;28;20363;-77
2022/06/30 12:28:47;;;;;;;;;;;27.00;99.90;;;;;;5034460;28;20342;-77
2022/06/30 12:31:31;;;;;;;;;;;27.10;99.90;;;;;;5035394;28;19920;-77
2022/06/30 12:33:58;;;;;;;;;;;27.20;99.90;;;;;;5033639;28;19920;-77
2022/06/30 12:36:28;;;;;;;;;;;27.10;99.90;;;;;;5033683;28;20000;-77
2022/06/30 12:38:54;;;;;;;;;;;27.10;99.90;;;;;;5033990;28;19913;-77
2022/06/30 12:41:21;;;;;;;;;;;27.00;99.90;;;;;;5034097;28;20008;-77
2022/06/30 12:43:49;;;;;;;;;;;26.90;99.90;;;;;;5034603;28;19991;-77
2022/06/30 12:46:18;;;;;;;;;;;26.90;99.90;;;;;;5033427;28;19916;-77
2022/06/30 12:48:51;;;;;;;;;;;27.00;99.90;;;;;;5023561;28;20366;-78
2022/06/30 12:51:28;;;;;;;;;;;27.00;99.90;;;;;;5029042;28;19919;-77
2022/06/30 12:54:00;;;;;;;;;;;27.00;99.90;;;;;;5033407;28;19913;-77
2022/06/30 12:56:26;;;;;;;;;;;26.80;99.90;;;;;;5033950;28;19917;-77
2022/06/30 12:59:05;;;;;;;;;;;26.90;99.90;;;;;;5033827;28;19967;-77
2022/06/30 13:01:34;;;;;;;;;;;26.70;99.90;;;;;;5029894;28;19915;-77
2022/06/30 13:04:00;;;;;;;;;;;26.50;99.90;;;;;;5033620;28;19909;-77
2022/06/30 13:06:27;;;;;;;;;;;26.60;99.90;;;;;;5033604;28;19921;-77
2022/06/30 13:08:53;;;;;;;;;;;26.70;99.90;;;;;;5033401;28;19914;-77
2022/06/30 13:11:23;;;;;;;;;;;26.60;99.90;;;;;;5033792;28;19917;-77
2022/06/30 13:13:48;;;;;;;;;;;26.50;99.90;;;;;;5033298;28;19924;-78
2022/06/30 13:16:15;;;;;;;;;;;26.60;99.90;;;;;;5034581;28;20004;-77
2022/06/30 13:18:40;;;;;;;;;;;26.60;99.90;;;;;;5033440;28;19936;-77
2022/06/30 13:21:06;;;;;;;;;;;26.60;99.90;;;;;;5032862;28;19913;-77
2022/06/30 13:23:32;;;;;;;;;;;26.70;99.90;;;;;;5033461;28;19913;-77
2022/06/30 13:25:57;;;;;;;;;;;26.70;99.90;;;;;;5033315;28;19920;-77
2022/06/30 13:28:23;;;;;;;;;;;26.50;99.90;;;;;;5018109;28;19928;-77
2022/06/30 13:30:48;;;;;;;;;;;26.60;99.90;;;;;;5032987;28;19960;-77
2022/06/30 13:33:14;;;;;;;;;;;26.60;99.90;;;;;;5032920;28;19916;-78
2022/06/30 13:35:39;;;;;;;;;;;26.40;99.90;;;;;;5032699;28;19921;-77
2022/06/30 13:38:05;;;;;;;;;;;26.50;99.90;;;;;;5033119;28;19920;-77
2022/06/30 13:40:30;;;;;;;;;;;26.50;99.90;;;;;;5033352;28;20504;-78
2022/06/30 13:42:56;;;;;;;;;;;26.50;99.90;;;;;;5033492;28;19933;-77
2022/06/30 13:45:22;;;;;;;;;;;26.40;99.90;;;;;;5032876;28;19921;-78
2022/06/30 13:47:47;;;;;;;;;;;26.30;99.90;;;;;;5032727;28;19928;-77
2022/06/30 13:50:13;;;;;;;;;;;26.60;99.90;;;;;;5032334;28;19955;-78
2022/06/30 13:52:39;;;;;;;;;;;26.60;99.90;;;;;;5032764;28;19916;-77
2022/06/30 13:55:04;;;;;;;;;;;26.50;99.90;;;;;;5033068;28;20005;-77
2022/06/30 13:57:30;;;;;;;;;;;26.20;99.90;;;;;;5032899;28;19913;-78
2022/06/30 13:59:55;;;;;;;;;;;26.20;99.90;;;;;;5032510;28;19941;-78
2022/06/30 14:02:21;;;;;;;;;;;26.20;99.90;;;;;;5032826;28;19966;-78
2022/06/30 14:04:47;;;;;;;;;;;26.30;99.90;;;;;;5031294;28;19936;-78
2022/06/30 14:07:12;;;;;;;;;;;26.50;99.90;;;;;;5019239;28;19964;-78
2022/06/30 14:09:38;;;;;;;;;;;26.60;99.90;;;;;;5030720;28;20393;-78
2022/06/30 14:12:06;;;;;;;;;;;26.50;99.90;;;;;;5032275;28;20382;-78
2022/06/30 14:14:32;;;;;;;;;;;26.30;99.90;;;;;;5032552;28;19921;-77
2022/06/30 14:16:57;;;;;;;;;;;26.40;99.90;;;;;;5032416;28;19917;-78
2022/06/30 14:19:23;;;;;;;;;;;26.50;99.90;;;;;;5032404;28;20000;-78
2022/06/30 14:21:49;;;;;;;;;;;26.60;99.90;;;;;;5032042;28;19920;-78
2022/06/30 14:24:15;;;;;;;;;;;26.60;99.90;;;;;;5032061;28;19920;-78
2022/06/30 14:26:41;;;;;;;;;;;26.80;99.90;;;;;;5032132;28;20451;-77
2022/06/30 14:29:06;;;;;;;;;;;26.70;99.90;;;;;;5032504;28;19913;-78
2022/06/30 14:31:32;;;;;;;;;;;26.70;99.90;;;;;;5032266;28;19916;-78
2022/06/30 14:33:58;;;;;;;;;;;26.80;99.90;;;;;;5030858;28;20294;-77
2022/06/30 14:36:23;;;;;;;;;;;26.90;99.90;;;;;;5031894;28;19967;-78